Time;durP1;ratioP1;P1;durP2;ratioP2;P2;SDS_P1;SDS_P2;PMS_P1;PMS_P2;Temp;Humidity;BMP_temperature;BMP_pressure;BME280_temperature;BME280_humidity;BME280_pressure;Samples;Min_cycle;Max_cycle;Signal;HPM_P1;HPM_P2
2023/07/19 00:01:43;;;;;;;1.15;0.20;;;23.30;71.30;;;;;;5096419;28;20475;-79
2023/07/19 00:04:09;;;;;;;2.55;0.30;;;23.30;71.40;;;;;;5096266;28;20036;-79
2023/07/19 00:06:35;;;;;;;1.02;0.20;;;23.30;71.50;;;;;;5096268;28;20024;-79
2023/07/19 00:09:01;;;;;;;1.15;0.38;;;23.30;71.50;;;;;;5095983;28;20023;-79
2023/07/19 00:11:26;;;;;;;0.70;0.20;;;23.30;71.50;;;;;;5095994;28;20426;-79
2023/07/19 00:13:52;;;;;;;0.93;0.20;;;23.30;71.60;;;;;;5114249;28;20080;-79
2023/07/19 00:16:17;;;;;;;1.13;0.20;;;23.30;71.70;;;;;;5113829;28;20417;-79
2023/07/19 00:18:43;;;;;;;2.58;0.20;;;23.30;71.70;;;;;;5113899;28;20032;-80
2023/07/19 00:21:09;;;;;;;0.52;0.20;;;23.30;71.80;;;;;;5114077;28;20028;-80
2023/07/19 00:23:35;;;;;;;2.30;0.20;;;23.30;71.80;;;;;;5095775;28;20035;-79
2023/07/19 00:26:01;;;;;;;1.75;0.20;;;23.30;71.80;;;;;;5095892;28;20031;-80
2023/07/19 00:28:26;;;;;;;0.75;0.22;;;23.30;71.80;;;;;;5114288;28;20039;-79
2023/07/19 00:31:04;;;;;;;0.85;0.20;;;23.30;71.90;;;;;;5114027;28;20031;-80
2023/07/19 00:33:31;;;;;;;1.10;0.20;;;23.30;72.00;;;;;;5113734;28;20031;-80
2023/07/19 00:35:56;;;;;;;0.95;0.20;;;23.30;72.00;;;;;;5095609;28;20027;-80
2023/07/19 00:38:22;;;;;;;1.00;0.20;;;23.30;72.00;;;;;;5113984;28;20383;-79
2023/07/19 00:40:48;;;;;;;0.68;0.10;;;23.30;72.10;;;;;;5113885;28;20038;-79
2023/07/19 00:43:14;;;;;;;1.15;0.20;;;23.30;72.20;;;;;;5113363;28;20052;-79
2023/07/19 00:45:47;;;;;;;1.65;0.20;;;23.20;72.20;;;;;;5113202;28;20032;-79
2023/07/19 00:48:15;;;;;;;2.00;0.30;;;23.20;72.30;;;;;;5113980;28;20368;-79
2023/07/19 00:50:41;;;;;;;0.73;0.10;;;23.20;72.50;;;;;;5113721;28;20016;-79
2023/07/19 00:53:07;;;;;;;1.85;0.30;;;23.20;72.60;;;;;;5113887;28;20050;-79
2023/07/19 00:55:33;;;;;;;1.17;0.73;;;23.20;72.70;;;;;;5113667;28;20451;-79
2023/07/19 00:57:59;;;;;;;1.13;0.20;;;23.20;72.80;;;;;;5114620;28;20070;-80
2023/07/19 01:00:25;;;;;;;1.08;0.20;;;23.20;72.80;;;;;;5117289;28;20035;-80
2023/07/19 01:02:51;;;;;;;1.00;0.20;;;23.20;72.90;;;;;;5099306;28;20032;-79
2023/07/19 01:05:16;;;;;;;1.30;0.30;;;23.20;73.00;;;;;;5117553;28;20125;-80
2023/07/19 01:07:42;;;;;;;1.60;0.20;;;23.20;73.10;;;;;;5098989;28;20070;-80
2023/07/19 01:10:09;;;;;;;1.10;0.28;;;23.20;73.40;;;;;;5117757;28;20038;-79
2023/07/19 01:12:34;;;;;;;0.88;0.20;;;23.10;73.30;;;;;;5117719;28;20032;-80
2023/07/19 01:15:01;;;;;;;1.20;0.20;;;23.10;73.30;;;;;;5117352;28;20076;-80
2023/07/19 01:17:26;;;;;;;0.60;0.30;;;23.10;73.90;;;;;;5116921;28;20023;-79
2023/07/19 01:19:52;;;;;;;1.08;0.20;;;23.00;73.80;;;;;;5117585;28;20024;-80
2023/07/19 01:22:18;;;;;;;1.38;0.20;;;23.00;73.80;;;;;;5117117;28;20031;-80
2023/07/19 01:24:44;;;;;;;0.82;0.20;;;23.00;73.70;;;;;;5117255;28;20036;-79
2023/07/19 01:27:09;;;;;;;1.30;0.20;;;23.00;73.80;;;;;;5117308;28;20035;-79
2023/07/19 01:29:35;;;;;;;1.42;0.20;;;22.90;74.80;;;;;;5116635;28;20023;-79
2023/07/19 01:32:00;;;;;;;0.90;0.22;;;22.90;74.20;;;;;;5117080;28;20027;-79
2023/07/19 01:34:26;;;;;;;0.85;0.20;;;22.90;74.20;;;;;;5098458;28;20110;-80
2023/07/19 01:36:52;;;;;;;0.95;0.20;;;22.90;74.20;;;;;;5116522;28;20107;-79
2023/07/19 01:39:17;;;;;;;1.65;0.30;;;22.90;74.30;;;;;;5116470;28;20444;-80
2023/07/19 01:41:43;;;;;;;0.60;0.20;;;22.90;74.30;;;;;;5098461;28;20046;-79
2023/07/19 01:44:09;;;;;;;0.50;0.10;;;22.90;74.40;;;;;;5098275;28;20051;-79
2023/07/19 01:46:38;;;;;;;1.30;0.30;;;22.90;74.40;;;;;;5116631;28;20092;-79
2023/07/19 01:49:04;;;;;;;0.52;0.20;;;22.90;74.80;;;;;;5116113;28;20459;-80
2023/07/19 01:51:29;;;;;;;1.15;0.30;;;22.90;74.70;;;;;;5116245;28;20047;-79
2023/07/19 01:53:55;;;;;;;1.83;0.20;;;22.80;74.60;;;;;;5116492;28;20083;-79
2023/07/19 01:56:20;;;;;;;2.05;0.30;;;22.80;74.60;;;;;;5115999;28;20032;-79
2023/07/19 01:58:46;;;;;;;1.20;0.25;;;22.80;74.70;;;;;;5098321;28;20468;-80
2023/07/19 02:01:12;;;;;;;1.00;0.20;;;22.80;74.80;;;;;;5116358;28;20081;-79
2023/07/19 02:03:37;;;;;;;0.77;0.30;;;22.80;74.80;;;;;;5116296;28;20028;-79
2023/07/19 02:06:04;;;;;;;1.15;0.25;;;22.80;74.80;;;;;;5115997;28;20042;-80
2023/07/19 02:08:29;;;;;;;1.52;0.20;;;22.80;74.90;;;;;;5116032;28;20103;-79
2023/07/19 02:10:55;;;;;;;0.32;0.10;;;22.80;74.90;;;;;;5115233;28;20078;-80
2023/07/19 02:13:21;;;;;;;0.65;0.20;;;22.80;74.90;;;;;;5115766;28;20377;-79
2023/07/19 02:15:46;;;;;;;0.68;0.20;;;22.80;74.80;;;;;;5097514;28;20060;-80
2023/07/19 02:18:12;;;;;;;0.82;0.20;;;22.80;74.90;;;;;;5115856;28;20032;-80
2023/07/19 02:20:44;;;;;;;1.42;0.20;;;22.80;74.90;;;;;;5116004;28;20024;-80
2023/07/19 02:23:09;;;;;;;1.25;0.30;;;22.80;75.00;;;;;;5116080;28;20145;-80
2023/07/19 02:25:35;;;;;;;0.63;0.20;;;22.70;75.00;;;;;;5115898;28;20051;-79
2023/07/19 02:28:00;;;;;;;1.17;0.30;;;22.70;75.10;;;;;;5115419;28;20486;-79
2023/07/19 02:30:26;;;;;;;0.98;0.28;;;22.80;75.10;;;;;;5080754;28;20027;-80
2023/07/19 02:32:52;;;;;;;1.65;0.30;;;22.70;75.00;;;;;;5115819;28;20039;-80
2023/07/19 02:35:18;;;;;;;1.48;0.20;;;22.80;75.10;;;;;;5097322;28;20031;-79
2023/07/19 02:37:44;;;;;;;0.88;0.30;;;22.70;75.10;;;;;;5080936;28;20028;-80
2023/07/19 02:40:10;;;;;;;1.25;0.20;;;22.80;75.10;;;;;;5115362;28;20032;-79
2023/07/19 02:42:35;;;;;;;2.15;0.20;;;22.80;75.10;;;;;;5079837;28;20056;-79
2023/07/19 02:45:01;;;;;;;0.60;0.20;;;22.80;75.10;;;;;;5115521;28;20088;-79
2023/07/19 02:47:27;;;;;;;1.20;0.30;;;22.80;75.20;;;;;;5115161;28;20028;-79
2023/07/19 02:49:52;;;;;;;1.10;0.20;;;22.70;75.10;;;;;;5115563;28;20049;-79
2023/07/19 02:52:18;;;;;;;0.98;0.20;;;22.70;75.20;;;;;;5115190;28;20387;-79
2023/07/19 02:54:44;;;;;;;2.15;0.40;;;22.70;75.20;;;;;;5097216;28;20024;-79
2023/07/19 02:57:10;;;;;;;1.88;0.22;;;22.70;75.20;;;;;;5115167;28;20023;-79
2023/07/19 02:59:35;;;;;;;0.60;0.25;;;22.70;75.30;;;;;;5115285;28;20019;-79
2023/07/19 03:02:02;;;;;;;0.88;0.20;;;22.70;75.30;;;;;;5115031;28;20043;-80
2023/07/19 03:04:27;;;;;;;0.63;0.20;;;22.70;75.30;;;;;;5096869;28;20074;-80
2023/07/19 03:06:53;;;;;;;0.98;0.20;;;22.70;75.30;;;;;;5115105;28;20078;-79
2023/07/19 03:09:19;;;;;;;0.63;0.20;;;22.70;75.40;;;;;;5097022;28;20039;-80
2023/07/19 03:11:45;;;;;;;1.85;0.30;;;22.70;75.40;;;;;;5114586;28;20370;-79
2023/07/19 03:14:11;;;;;;;1.27;0.28;;;22.70;75.50;;;;;;5115330;28;20035;-79
2023/07/19 03:16:36;;;;;;;0.82;0.20;;;22.70;75.50;;;;;;5096040;28;20032;-79
2023/07/19 03:19:03;;;;;;;3.03;0.20;;;22.60;75.50;;;;;;5096513;28;20036;-79
2023/07/19 03:21:29;;;;;;;1.55;0.30;;;22.70;75.60;;;;;;5113691;28;20038;-79
2023/07/19 03:23:55;;;;;;;1.15;0.30;;;22.60;75.70;;;;;;5096750;28;20124;-79
2023/07/19 03:26:20;;;;;;;0.80;0.47;;;22.60;75.80;;;;;;5114158;28;20106;-79
2023/07/19 03:28:46;;;;;;;0.55;0.10;;;22.60;75.90;;;;;;5096741;28;20042;-79
2023/07/19 03:31:12;;;;;;;1.23;0.20;;;22.60;76.00;;;;;;5096353;28;20027;-79
2023/07/19 03:33:39;;;;;;;3.25;0.38;;;22.60;76.00;;;;;;5114584;28;20460;-79
2023/07/19 03:36:05;;;;;;;1.33;0.30;;;22.60;76.00;;;;;;5114568;28;20031;-80
2023/07/19 03:38:31;;;;;;;0.90;0.30;;;22.50;76.10;;;;;;5114464;28;20383;-79
2023/07/19 03:41:07;;;;;;;0.50;0.15;;;22.50;76.20;;;;;;5114744;28;20035;-79
2023/07/19 03:43:33;;;;;;;1.15;0.20;;;22.50;76.20;;;;;;5096596;28;20052;-79
2023/07/19 03:45:59;;;;;;;0.90;0.20;;;22.50;76.20;;;;;;5114559;28;20027;-80
2023/07/19 03:48:25;;;;;;;1.05;0.20;;;22.50;76.20;;;;;;5114699;28;20035;-80
2023/07/19 03:51:03;;;;;;;1.50;0.25;;;22.50;76.20;;;;;;5096513;28;20035;-80
2023/07/19 03:53:29;;;;;;;1.27;0.15;;;22.50;76.30;;;;;;5114596;28;20062;-80
2023/07/19 03:55:55;;;;;;;1.77;0.20;;;22.50;76.40;;;;;;5096579;28;20027;-80
2023/07/19 03:58:25;;;;;;;0.88;0.20;;;22.40;76.40;;;;;;5096670;28;20084;-80
2023/07/19 04:00:56;;;;;;;2.20;0.30;;;22.40;76.40;;;;;;5114250;28;20031;-80
2023/07/19 04:03:22;;;;;;;2.40;0.40;;;22.50;76.40;;;;;;5114556;28;20069;-80
2023/07/19 04:05:48;;;;;;;2.25;0.40;;;22.40;76.30;;;;;;5096375;28;20024;-80
2023/07/19 04:08:14;;;;;;;1.10;0.30;;;22.40;76.40;;;;;;5114494;28;20369;-80
2023/07/19 04:10:41;;;;;;;2.45;0.30;;;22.50;76.40;;;;;;5114593;28;20032;-79
2023/07/19 04:13:07;;;;;;;2.35;0.45;;;22.50;76.30;;;;;;5113966;28;20122;-79
2023/07/19 04:15:33;;;;;;;1.50;0.40;;;22.50;76.20;;;;;;5114103;28;20024;-80
2023/07/19 04:17:58;;;;;;;1.10;0.30;;;22.50;75.80;;;;;;5096334;28;20035;-80
2023/07/19 04:20:25;;;;;;;2.30;0.30;;;22.40;75.50;;;;;;5114467;28;20375;-79
2023/07/19 04:22:51;;;;;;;0.88;0.40;;;22.40;75.70;;;;;;5113876;28;20499;-80
2023/07/19 04:25:18;;;;;;;1.48;0.30;;;22.40;75.90;;;;;;5095940;28;20076;-79
2023/07/19 04:27:44;;;;;;;3.38;0.40;;;22.40;76.10;;;;;;5095988;28;20038;-79
2023/07/19 04:30:10;;;;;;;0.60;0.30;;;22.40;76.20;;;;;;5114266;28;20375;-79
2023/07/19 04:32:36;;;;;;;1.08;0.30;;;22.40;76.40;;;;;;5095627;28;20130;-80
2023/07/19 04:35:01;;;;;;;2.35;0.40;;;22.40;76.60;;;;;;5114238;28;20055;-80
2023/07/19 04:37:27;;;;;;;0.65;0.20;;;22.30;76.60;;;;;;5095733;28;20023;-80
2023/07/19 04:39:52;;;;;;;2.20;0.40;;;22.40;76.80;;;;;;5113727;28;20058;-81
2023/07/19 04:42:21;;;;;;;2.25;0.20;;;22.30;76.60;;;;;;5113512;28;20579;-80
2023/07/19 04:44:48;;;;;;;0.85;0.20;;;22.30;76.60;;;;;;5095888;28;20052;-80
2023/07/19 04:47:14;;;;;;;1.60;0.20;;;22.40;76.70;;;;;;5113407;28;20093;-80
2023/07/19 04:49:39;;;;;;;0.88;0.30;;;22.40;76.60;;;;;;5113946;28;20028;-80
2023/07/19 04:52:05;;;;;;;1.35;0.30;;;22.40;76.60;;;;;;5113976;28;20038;-81
2023/07/19 04:54:31;;;;;;;1.58;0.35;;;22.40;76.60;;;;;;5095613;28;20031;-80
2023/07/19 04:56:57;;;;;;;1.17;0.20;;;22.40;76.60;;;;;;5113908;28;20027;-80
2023/07/19 04:59:23;;;;;;;2.53;0.57;;;22.40;76.50;;;;;;5095574;28;20024;-80
2023/07/19 05:01:48;;;;;;;1.17;0.30;;;22.40;76.40;;;;;;5114043;28;20040;-80
2023/07/19 05:04:14;;;;;;;2.30;0.60;;;22.40;76.40;;;;;;5078816;28;20379;-80
2023/07/19 05:06:40;;;;;;;3.13;0.40;;;22.30;76.00;;;;;;5113230;28;20436;-80
2023/07/19 05:09:09;;;;;;;4.15;1.20;;;22.30;76.20;;;;;;5095638;28;20028;-80
2023/07/19 05:11:35;;;;;;;3.08;0.80;;;22.30;76.30;;;;;;5113832;28;20077;-80
2023/07/19 05:14:00;;;;;;;1.27;0.30;;;22.20;76.60;;;;;;5113327;28;20028;-79
2023/07/19 05:16:26;;;;;;;1.67;0.38;;;22.10;76.80;;;;;;5113398;28;20051;-80
2023/07/19 05:18:52;;;;;;;1.23;0.35;;;22.10;77.10;;;;;;5078619;28;20034;-80
2023/07/19 05:21:18;;;;;;;1.02;0.20;;;22.10;77.30;;;;;;5094922;28;20024;-80
2023/07/19 05:23:43;;;;;;;2.00;0.45;;;22.20;77.40;;;;;;5095286;28;20042;-80
2023/07/19 05:26:09;;;;;;;1.42;0.40;;;22.10;77.50;;;;;;5078751;28;20456;-80
2023/07/19 05:28:35;;;;;;;1.35;0.30;;;22.20;77.50;;;;;;5113376;28;20098;-80
2023/07/19 05:31:05;;;;;;;2.40;0.75;;;22.20;77.50;;;;;;5113208;28;20051;-80
2023/07/19 05:33:34;;;;;;;2.72;0.60;;;22.20;77.80;;;;;;5095233;28;20026;-80
2023/07/19 05:36:00;;;;;;;2.15;0.82;;;22.20;77.70;;;;;;5078358;28;20035;-81
2023/07/19 05:38:27;;;;;;;2.53;0.80;;;22.20;78.30;;;;;;5113612;28;20066;-81
2023/07/19 05:41:01;;;;;;;2.85;1.00;;;22.10;78.80;;;;;;5111018;28;20023;-79
2023/07/19 05:43:28;;;;;;;6.80;1.30;;;22.10;78.50;;;;;;5092362;28;20152;-82
2023/07/19 05:45:53;;;;;;;4.85;1.70;;;22.00;78.80;;;;;;5107194;28;20034;-78
2023/07/19 05:48:19;;;;;;;8.07;2.03;;;21.90;79.20;;;;;;5115281;28;20102;-81
2023/07/19 05:50:45;;;;;;;4.35;1.92;;;21.80;79.20;;;;;;5096928;28;20027;-80
2023/07/19 05:53:11;;;;;;;4.22;1.73;;;21.70;79.60;;;;;;5115972;28;20072;-82
2023/07/19 05:55:38;;;;;;;4.43;0.90;;;21.50;80.20;;;;;;5116431;28;20068;-78
2023/07/19 05:58:04;;;;;;;4.97;2.15;;;21.50;80.60;;;;;;5116420;28;20478;-79
2023/07/19 06:00:30;;;;;;;8.43;1.90;;;21.50;80.90;;;;;;5097224;28;20055;-81
2023/07/19 06:02:56;;;;;;;4.88;2.05;;;21.40;81.20;;;;;;5097746;28;20036;-82
2023/07/19 06:05:23;;;;;;;3.22;1.20;;;21.20;81.70;;;;;;5115662;28;20110;-82
2023/07/19 06:07:49;;;;;;;4.25;1.60;;;21.30;82.10;;;;;;5115856;28;20165;-81
2023/07/19 06:10:15;;;;;;;7.30;2.63;;;21.20;82.30;;;;;;5098111;28;20055;-80
2023/07/19 06:12:43;;;;;;;6.30;2.28;;;21.20;82.60;;;;;;5097668;28;20031;-80
2023/07/19 06:15:09;;;;;;;3.05;0.98;;;21.30;82.60;;;;;;5116025;28;20351;-79
2023/07/19 06:17:36;;;;;;;8.73;1.95;;;21.30;82.50;;;;;;5097044;28;20032;-80
2023/07/19 06:20:04;;;;;;;2.22;0.80;;;21.30;82.60;;;;;;5115770;28;20016;-81
2023/07/19 06:22:30;;;;;;;4.47;1.02;;;21.40;82.40;;;;;;5097919;28;20084;-80
2023/07/19 06:24:57;;;;;;;6.18;1.40;;;21.40;82.40;;;;;;5116171;28;20032;-80
2023/07/19 06:27:23;;;;;;;5.32;1.67;;;21.40;82.60;;;;;;5115413;28;20036;-82
2023/07/19 06:29:50;;;;;;;5.82;1.38;;;21.50;82.70;;;;;;5097600;28;20089;-82
2023/07/19 06:32:16;;;;;;;3.13;1.60;;;21.60;82.60;;;;;;5105173;28;20202;-80
2023/07/19 06:34:43;;;;;;;7.75;1.92;;;21.60;81.50;;;;;;5112753;27;20388;-81
2023/07/19 06:37:08;;;;;;;3.72;1.25;;;21.50;81.40;;;;;;5122751;27;20017;-81
2023/07/19 06:39:34;;;;;;;4.20;1.38;;;21.60;81.90;;;;;;5105843;27;20031;-81
2023/07/19 06:42:00;;;;;;;6.93;1.70;;;21.60;82.40;;;;;;5123068;27;20102;-81
2023/07/19 06:44:26;;;;;;;4.18;1.15;;;21.60;81.40;;;;;;5115863;28;20033;-81
2023/07/19 06:46:52;;;;;;;4.20;1.30;;;21.70;81.20;;;;;;5096763;28;20382;-80
2023/07/19 06:49:18;;;;;;;5.68;1.52;;;21.80;81.20;;;;;;5116403;27;20028;-81
2023/07/19 06:51:44;;;;;;;5.00;1.30;;;21.90;80.40;;;;;;5114576;28;20032;-80
2023/07/19 06:54:10;;;;;;;6.13;1.10;;;21.90;79.00;;;;;;5096536;28;20365;-78
2023/07/19 06:56:35;;;;;;;2.00;1.00;;;22.00;78.40;;;;;;5096969;28;20122;-81
2023/07/19 06:59:01;;;;;;;5.35;1.42;;;21.90;78.10;;;;;;5115183;28;20464;-81
2023/07/19 07:01:27;;;;;;;4.05;1.60;;;21.90;78.60;;;;;;5096753;28;20031;-81
2023/07/19 07:03:53;;;;;;;6.57;1.80;;;22.00;78.40;;;;;;5115048;28;20070;-80
2023/07/19 07:06:18;;;;;;;3.83;1.30;;;22.00;78.50;;;;;;5080084;28;20077;-80
2023/07/19 07:08:44;;;;;;;6.82;1.40;;;22.00;78.60;;;;;;5114885;28;20052;-78
2023/07/19 07:11:10;;;;;;;3.33;1.20;;;21.90;78.70;;;;;;5097692;28;20387;-79
2023/07/19 07:13:35;;;;;;;3.63;0.82;;;21.90;78.80;;;;;;5131862;27;20070;-78
2023/07/19 07:16:02;;;;;;;4.85;1.58;;;21.90;79.00;;;;;;5131284;27;20030;-78
2023/07/19 07:18:28;;;;;;;4.55;1.48;;;21.90;79.30;;;;;;5114881;28;20035;-80
2023/07/19 07:20:54;;;;;;;2.38;0.85;;;22.00;79.70;;;;;;5114892;28;20387;-80
2023/07/19 07:23:21;;;;;;;3.95;1.63;;;22.00;79.90;;;;;;5114727;28;20391;-80
2023/07/19 07:25:52;;;;;;;3.90;1.90;;;22.00;80.10;;;;;;5114648;28;20035;-79
2023/07/19 07:28:17;;;;;;;4.97;2.05;;;22.00;80.30;;;;;;5114982;28;20464;-80
2023/07/19 07:30:43;;;;;;;5.53;1.90;;;22.00;80.60;;;;;;5096559;28;20032;-79
2023/07/19 07:33:09;;;;;;;6.07;2.13;;;22.00;80.90;;;;;;5079750;28;20028;-80
2023/07/19 07:35:35;;;;;;;6.55;2.13;;;22.00;80.80;;;;;;5096248;28;20071;-79
2023/07/19 07:38:00;;;;;;;5.18;1.80;;;22.00;80.60;;;;;;5115123;28;20032;-80
2023/07/19 07:40:26;;;;;;;5.53;1.92;;;22.00;80.50;;;;;;5114456;28;20032;-78
2023/07/19 07:42:52;;;;;;;4.93;2.30;;;22.20;80.80;;;;;;5096269;28;20059;-77
2023/07/19 07:45:18;;;;;;;7.80;2.50;;;22.30;80.30;;;;;;5114550;28;20035;-77
2023/07/19 07:47:43;;;;;;;6.50;2.85;;;22.30;79.60;;;;;;5095847;28;20414;-76
2023/07/19 07:50:10;;;;;;;6.63;2.30;;;22.20;79.20;;;;;;5098414;28;20463;-78
2023/07/19 07:52:36;;;;;;;7.35;3.50;;;22.20;79.50;;;;;;5076432;28;20115;-78
2023/07/19 07:55:02;;;;;;;5.15;2.60;;;22.10;80.10;;;;;;5093946;28;20068;-78
2023/07/19 07:57:30;;;;;;;6.03;2.80;;;22.20;79.90;;;;;;5059235;28;20032;-78
2023/07/19 07:59:56;;;;;;;8.05;2.55;;;22.20;80.10;;;;;;5093718;28;20457;-78
2023/07/19 08:02:21;;;;;;;8.18;2.85;;;22.20;80.10;;;;;;5093590;28;20035;-78
2023/07/19 08:04:47;;;;;;;7.82;2.45;;;22.30;80.10;;;;;;5093796;28;20028;-78
2023/07/19 08:07:14;;;;;;;8.38;3.05;;;22.50;79.90;;;;;;5093262;28;20051;-78
2023/07/19 08:09:40;;;;;;;7.47;2.67;;;22.50;79.30;;;;;;5093630;28;20092;-78
2023/07/19 08:12:06;;;;;;;8.15;2.10;;;22.50;79.30;;;;;;5093715;28;20484;-78
2023/07/19 08:14:31;;;;;;;7.85;1.88;;;22.60;79.30;;;;;;5077079;28;20077;-79
2023/07/19 08:16:57;;;;;;;6.43;2.53;;;22.60;79.20;;;;;;5095031;28;20114;-81
2023/07/19 08:19:23;;;;;;;7.38;1.88;;;22.60;78.70;;;;;;5113832;28;20116;-78
2023/07/19 08:21:48;;;;;;;4.18;1.50;;;22.70;78.60;;;;;;5113707;28;20047;-78
2023/07/19 08:24:14;;;;;;;8.55;2.28;;;22.80;79.00;;;;;;5078705;28;20039;-82
2023/07/19 08:26:40;;;;;;;8.32;2.63;;;22.80;79.10;;;;;;5112642;28;20457;-79
2023/07/19 08:29:06;;;;;;;8.05;2.10;;;22.80;79.10;;;;;;5112794;28;20514;-78
2023/07/19 08:31:31;;;;;;;5.32;2.15;;;22.80;79.60;;;;;;5094024;28;20032;-81
2023/07/19 08:33:57;;;;;;;6.30;1.73;;;22.90;79.60;;;;;;5094404;28;20088;-82
2023/07/19 08:36:23;;;;;;;7.18;1.88;;;22.90;79.70;;;;;;5078603;28;20507;-81
2023/07/19 08:38:49;;;;;;;7.70;2.70;;;22.90;79.90;;;;;;5095868;28;20437;-82
2023/07/19 08:41:21;;;;;;;6.00;1.52;;;23.00;79.60;;;;;;5113769;28;20459;-81
2023/07/19 08:43:47;;;;;;;4.20;1.17;;;22.90;78.30;;;;;;5095200;28;20054;-80
2023/07/19 08:46:15;;;;;;;3.75;2.03;;;22.90;78.20;;;;;;5093532;28;20028;-82
2023/07/19 08:48:50;;;;;;;5.35;1.55;;;22.90;79.20;;;;;;5096815;28;20107;-80
2023/07/19 08:51:16;;;;;;;7.10;1.80;;;23.00;77.80;;;;;;5094896;28;20103;-79
2023/07/19 08:53:42;;;;;;;6.97;1.92;;;23.00;78.30;;;;;;5093973;28;20396;-76
2023/07/19 08:56:11;;;;;;;5.53;1.55;;;23.00;78.40;;;;;;5103865;28;20027;-79
2023/07/19 08:58:39;;;;;;;4.65;1.40;;;23.00;77.90;;;;;;5110942;28;20448;-78
2023/07/19 09:01:06;;;;;;;9.75;1.77;;;22.90;77.70;;;;;;5109496;28;20392;-77
2023/07/19 09:03:32;;;;;;;7.28;1.40;;;22.80;77.70;;;;;;5083274;28;20040;-80
2023/07/19 09:05:57;;;;;;;5.38;1.60;;;22.60;78.00;;;;;;5095151;28;20030;-80
2023/07/19 09:08:40;;;;;;;4.45;1.40;;;22.60;78.60;;;;;;5094718;28;20035;-80
2023/07/19 09:11:06;;;;;;;;;;;22.60;79.10;;;;;;5113847;28;20020;-80
2023/07/19 09:13:36;;;;;;;4.97;2.20;;;22.50;79.20;;;;;;5113122;28;19904;-80
2023/07/19 09:16:03;;;;;;;6.03;1.77;;;22.40;79.50;;;;;;5112965;28;20035;-77
2023/07/19 09:18:35;;;;;;;8.15;1.90;;;22.40;80.00;;;;;;5113625;28;20032;-78
2023/07/19 09:21:00;;;;;;;6.18;1.48;;;22.50;80.20;;;;;;5117452;28;20028;-78
2023/07/19 09:23:26;;;;;;;5.78;1.90;;;22.50;80.80;;;;;;5099016;28;20055;-81
2023/07/19 09:25:55;;;;;;;4.40;1.75;;;22.80;80.40;;;;;;5098726;28;20036;-81
2023/07/19 09:28:22;;;;;;;7.07;2.10;;;23.00;80.30;;;;;;5117390;28;20371;-81
2023/07/19 09:31:04;;;;;;;5.57;1.90;;;23.20;79.50;;;;;;5098865;28;20100;-81
2023/07/19 09:33:29;;;;;;;5.00;2.00;;;23.20;79.90;;;;;;5116953;28;20032;-81
2023/07/19 09:35:56;;;;;;;5.32;1.20;;;23.20;78.80;;;;;;5116941;28;20035;-80
2023/07/19 09:38:22;;;;;;;3.78;1.10;;;23.10;76.70;;;;;;5117305;28;20061;-80
2023/07/19 09:40:50;;;;;;;3.90;1.40;;;22.90;76.30;;;;;;5116904;28;20024;-80
2023/07/19 09:43:16;;;;;;;4.40;1.10;;;22.80;75.10;;;;;;5116076;28;20043;-80
2023/07/19 09:45:45;;;;;;;5.03;1.00;;;22.70;75.70;;;;;;5116411;28;20032;-80
2023/07/19 09:48:12;;;;;;;8.75;3.65;;;22.70;76.40;;;;;;5098325;28;20023;-79
2023/07/19 09:50:39;;;;;;;3.30;1.63;;;22.80;77.00;;;;;;5116723;28;20066;-78
2023/07/19 09:53:08;;;;;;;3.38;1.23;;;22.90;77.00;;;;;;5116910;28;20028;-79
2023/07/19 09:55:35;;;;;;;3.85;1.30;;;23.20;77.20;;;;;;5116370;28;20027;-79
2023/07/19 09:58:03;;;;;;;5.15;1.50;;;23.40;75.90;;;;;;5116066;28;20027;-79
2023/07/19 10:00:29;;;;;;;3.63;0.90;;;23.60;76.00;;;;;;5098650;28;20600;-80
2023/07/19 10:02:58;;;;;;;3.50;1.40;;;23.70;73.80;;;;;;5116250;28;20065;-80
2023/07/19 10:05:28;;;;;;;3.80;1.20;;;23.70;73.10;;;;;;5116253;28;20028;-80
2023/07/19 10:08:05;;;;;;;5.55;1.48;;;23.80;73.70;;;;;;5097898;28;20028;-79
2023/07/19 10:10:41;;;;;;;1.58;0.80;;;23.80;73.50;;;;;;5116000;28;20544;-79
2023/07/19 10:13:07;;;;;;;2.85;0.95;;;23.80;72.70;;;;;;5081519;28;20127;-80
2023/07/19 10:15:35;;;;;;;3.38;0.90;;;23.70;73.00;;;;;;5081158;28;20126;-80
2023/07/19 10:18:02;;;;;;;4.05;1.30;;;23.70;73.80;;;;;;5097735;28;20032;-80
2023/07/19 10:20:33;;;;;;;2.83;1.17;;;23.70;74.20;;;;;;5116182;28;20047;-79
2023/07/19 10:23:02;;;;;;;3.60;1.00;;;23.70;74.40;;;;;;5097477;28;20084;-80
2023/07/19 10:25:32;;;;;;;2.80;0.88;;;23.70;73.50;;;;;;5115749;28;20464;-80
2023/07/19 10:28:08;;;;;;;5.93;1.30;;;23.60;74.00;;;;;;5115866;28;20378;-80
2023/07/19 10:30:46;;;;;;;3.22;1.25;;;23.60;73.70;;;;;;5114891;28;20057;-79
2023/07/19 10:33:13;;;;;;;5.20;1.80;;;23.60;73.50;;;;;;5116114;28;20488;-80
2023/07/19 10:35:40;;;;;;;2.72;1.23;;;23.40;76.10;;;;;;5115666;28;20080;-80
2023/07/19 10:38:19;;;;;;;4.22;1.85;;;23.20;77.80;;;;;;5098013;28;20474;-80
2023/07/19 10:40:55;;;;;;;3.75;1.10;;;23.00;78.20;;;;;;5116039;28;20040;-80
2023/07/19 10:43:21;;;;;;;6.30;1.73;;;23.10;78.20;;;;;;5116041;28;20104;-80
2023/07/19 10:45:46;;;;;;;5.97;1.67;;;23.10;78.90;;;;;;5097519;28;20048;-80
2023/07/19 10:48:13;;;;;;;4.25;1.50;;;23.30;81.50;;;;;;5081150;28;20031;-79
2023/07/19 10:50:39;;;;;;;5.65;2.00;;;23.60;82.60;;;;;;5116093;28;20031;-80
2023/07/19 10:53:06;;;;;;;5.22;1.58;;;23.70;82.40;;;;;;5115800;28;20028;-79
2023/07/19 10:55:32;;;;;;;2.72;0.98;;;23.90;81.00;;;;;;5115657;28;20468;-79
2023/07/19 10:57:57;;;;;;;4.80;1.20;;;23.90;80.40;;;;;;5116002;28;20035;-79
2023/07/19 11:00:23;;;;;;;3.63;1.10;;;24.00;80.30;;;;;;5115434;28;20035;-79
2023/07/19 11:02:52;;;;;;;7.00;1.60;;;24.10;81.10;;;;;;5115727;28;20043;-78
2023/07/19 11:05:18;;;;;;;4.57;1.40;;;24.30;81.00;;;;;;5097689;28;20024;-79
2023/07/19 11:07:43;;;;;;;4.40;1.35;;;24.40;79.80;;;;;;5115799;28;20043;-79
2023/07/19 11:10:09;;;;;;;4.38;1.20;;;24.50;79.90;;;;;;5097175;28;20027;-79
2023/07/19 11:12:36;;;;;;;4.30;1.08;;;24.60;78.20;;;;;;5080525;28;20032;-79
2023/07/19 11:15:02;;;;;;;4.15;1.10;;;24.60;77.00;;;;;;5115310;28;20027;-78
2023/07/19 11:17:31;;;;;;;3.22;1.30;;;24.60;75.80;;;;;;5115414;28;20380;-79
2023/07/19 11:19:59;;;;;;;3.70;1.13;;;24.50;75.40;;;;;;5115116;28;20030;-79
2023/07/19 11:22:27;;;;;;;1.83;0.82;;;24.40;75.80;;;;;;5096925;28;20032;-80
2023/07/19 11:24:54;;;;;;;2.53;0.90;;;24.30;75.80;;;;;;5115146;28;20032;-80
2023/07/19 11:27:35;;;;;;;4.75;0.90;;;24.30;77.40;;;;;;5115318;28;20039;-80
2023/07/19 11:30:01;;;;;;;4.78;1.20;;;24.40;77.10;;;;;;5096890;28;20024;-78
2023/07/19 11:32:27;;;;;;;3.30;0.90;;;24.40;76.00;;;;;;5115208;28;20028;-79
2023/07/19 11:34:54;;;;;;;4.00;1.30;;;24.50;76.60;;;;;;5079810;28;20024;-80
2023/07/19 11:37:24;;;;;;;6.32;1.20;;;24.50;75.50;;;;;;5114776;28;20054;-80
2023/07/19 11:39:51;;;;;;;3.92;1.67;;;24.40;75.60;;;;;;5096912;28;20035;-80
2023/07/19 11:42:46;;;;;;;4.38;1.42;;;24.30;75.70;;;;;;5113623;28;20488;-80
2023/07/19 11:45:27;;;;;;;2.20;1.00;;;24.10;76.50;;;;;;5115016;28;20124;-79
2023/07/19 11:47:58;;;;;;;9.73;1.77;;;23.80;78.10;;;;;;5114255;28;20023;-79
2023/07/19 11:50:24;;;;;;;5.70;1.37;;;23.70;79.30;;;;;;5115056;28;20028;-78
2023/07/19 11:52:59;;;;;;;4.38;1.10;;;23.40;79.70;;;;;;5114745;28;20046;-79
2023/07/19 11:55:25;;;;;;;4.80;1.40;;;23.40;80.50;;;;;;5114571;28;20103;-80
2023/07/19 11:57:53;;;;;;;6.78;1.50;;;23.40;81.30;;;;;;5114438;28;20476;-80
2023/07/19 12:00:21;;;;;;;4.53;1.30;;;23.40;81.50;;;;;;5096175;28;20031;-80
2023/07/19 12:02:48;;;;;;;6.68;1.88;;;23.40;81.20;;;;;;5114745;28;20425;-79
2023/07/19 12:05:19;;;;;;;4.93;1.20;;;23.40;80.30;;;;;;5096387;28;20035;-79
2023/07/19 12:07:45;;;;;;;3.88;1.10;;;23.40;80.00;;;;;;5114391;28;20117;-80
2023/07/19 12:10:11;;;;;;;3.28;1.40;;;23.30;80.00;;;;;;5114571;28;20107;-80
2023/07/19 12:12:37;;;;;;;3.97;1.10;;;23.30;80.70;;;;;;5114524;28;20474;-79
2023/07/19 12:15:08;;;;;;;6.68;1.90;;;23.20;81.80;;;;;;5114368;28;20036;-80
2023/07/19 12:17:36;;;;;;;9.30;2.28;;;23.10;84.90;;;;;;5114241;28;20154;-79
2023/07/19 12:20:03;;;;;;;5.82;1.50;;;22.80;86.80;;;;;;5114027;28;20463;-79
2023/07/19 12:22:29;;;;;;;5.25;1.65;;;22.60;88.20;;;;;;5114019;28;20040;-79
2023/07/19 12:24:55;;;;;;;3.13;1.35;;;22.40;89.10;;;;;;5113908;28;20028;-79
2023/07/19 12:27:21;;;;;;;11.10;1.88;;;22.30;89.90;;;;;;5095244;28;20028;-77
2023/07/19 12:29:47;;;;;;;5.03;2.00;;;22.20;90.10;;;;;;5095835;28;20032;-77
2023/07/19 12:32:14;;;;;;;6.82;1.95;;;22.20;90.30;;;;;;5095992;28;20028;-77
2023/07/19 12:34:40;;;;;;;3.85;1.17;;;22.20;90.50;;;;;;5095734;28;20058;-76
2023/07/19 12:37:06;;;;;;;5.15;1.70;;;22.20;90.60;;;;;;5095843;28;20034;-77
2023/07/19 12:39:32;;;;;;;4.55;1.52;;;22.20;91.30;;;;;;5113726;28;20024;-76
2023/07/19 12:41:58;;;;;;;8.98;1.42;;;22.50;92.10;;;;;;5095578;28;20042;-75
2023/07/19 12:44:24;;;;;;;5.38;1.30;;;22.70;91.60;;;;;;5114158;28;20070;-77
2023/07/19 12:46:50;;;;;;;3.78;1.67;;;22.90;91.50;;;;;;5095453;28;20028;-77